PRIVATE WETTERSTATION BILLIGHEIM-ALLFELD                       ZURCK
Wetterdaten: Dienstag, 27.06.2017
Datum Zeit Temp. A. Temp. A. min Temp. A. max Feuchte A. Luftdruck Regen Wind Richtung Richtung Sonnenschein ET Solar Taupunkt Windchill Windben Empfang
27.06.2017 00:00 19,2 C 19,2 C 19,3 C 74 % 1009,1 hPa 0,0 l/m 0,0 km/h (0 Bft) N 0 0 min 0,025 mm 0 W/m 14,4 C 19,2 C 0,0 km/h (0 Bft) 100 %
27.06.2017 00:10 19,1 C 19,1 C 19,2 C 74 % 1009,2 hPa 0,0 l/m 0,0 km/h (0 Bft) N 0 0 min 0,000 mm 0 W/m 14,4 C 19,1 C 0,0 km/h (0 Bft) 99 %
27.06.2017 00:20 19,0 C 19,0 C 19,1 C 75 % 1009,3 hPa 0,0 l/m 0,0 km/h (0 Bft) N 0 0 min 0,000 mm 0 W/m 14,5 C 19,0 C 0,0 km/h (0 Bft) 100 %
27.06.2017 00:30 18,9 C 18,9 C 19,0 C 75 % 1009,4 hPa 0,0 l/m 0,0 km/h (0 Bft) N 0 0 min 0,000 mm 0 W/m 14,4 C 18,9 C 0,0 km/h (0 Bft) 100 %
27.06.2017 00:40 18,8 C 18,8 C 18,9 C 76 % 1009,4 hPa 0,0 l/m 0,0 km/h (0 Bft) N 0 0 min 0,000 mm 0 W/m 14,5 C 18,8 C 0,0 km/h (0 Bft) 100 %
27.06.2017 00:50 18,6 C 18,6 C 18,8 C 76 % 1009,2 hPa 0,0 l/m 0,0 km/h (0 Bft) N 0 0 min 0,000 mm 0 W/m 14,3 C 18,6 C 0,0 km/h (0 Bft) 100 %
27.06.2017 01:00 18,4 C 18,4 C 18,6 C 77 % 1009,0 hPa 0,0 l/m 0,0 km/h (0 Bft) N 0 0 min 0,025 mm 0 W/m 14,3 C 18,4 C 0,0 km/h (0 Bft) 100 %
27.06.2017 01:10 18,3 C 18,3 C 18,4 C 77 % 1008,9 hPa 0,0 l/m 0,0 km/h (0 Bft) N 0 0 min 0,000 mm 0 W/m 14,2 C 18,3 C 0,0 km/h (0 Bft) 100 %
27.06.2017 01:20 18,2 C 18,2 C 18,3 C 78 % 1009,0 hPa 0,0 l/m 0,0 km/h (0 Bft) N 0 0 min 0,000 mm 0 W/m 14,3 C 18,2 C 0,0 km/h (0 Bft) 100 %
27.06.2017 01:30 18,1 C 18,1 C 18,2 C 79 % 1008,9 hPa 0,0 l/m 0,0 km/h (0 Bft) N 0 0 min 0,000 mm 0 W/m 14,4 C 18,1 C 0,0 km/h (0 Bft) 100 %
27.06.2017 01:40 18,1 C 18,1 C 18,2 C 80 % 1008,9 hPa 0,0 l/m 0,0 km/h (0 Bft) N 0 0 min 0,000 mm 0 W/m 14,6 C 18,1 C 0,0 km/h (0 Bft) 100 %
27.06.2017 01:50 18,0 C 18,0 C 18,1 C 81 % 1009,1 hPa 0,0 l/m 0,0 km/h (0 Bft) N 0 0 min 0,000 mm 0 W/m 14,7 C 18,0 C 0,0 km/h (0 Bft) 100 %
27.06.2017 02:00 17,9 C 17,9 C 18,0 C 80 % 1010,1 hPa 0,0 l/m 6,4 km/h (2 Bft) S-SO 157 0 min 0,025 mm 0 W/m 14,4 C 17,9 C 29,0 km/h (5 Bft) 100 %
27.06.2017 02:10 18,3 C 17,9 C 18,3 C 77 % 1009,7 hPa 0,0 l/m 4,8 km/h (1 Bft) S-SO 157 0 min 0,000 mm 0 W/m 14,2 C 18,3 C 29,0 km/h (5 Bft) 100 %
27.06.2017 02:20 18,6 C 18,3 C 18,6 C 79 % 1009,5 hPa 0,0 l/m 0,0 km/h (0 Bft) N 360 0 min 0,000 mm 0 W/m 14,9 C 18,6 C 3,2 km/h (1 Bft) 100 %
27.06.2017 02:30 18,6 C 18,6 C 18,6 C 77 % 1009,6 hPa 0,0 l/m 1,6 km/h (1 Bft) S-SO 157 0 min 0,000 mm 0 W/m 14,5 C 18,6 C 8,0 km/h (2 Bft) 100 %
27.06.2017 02:40 18,5 C 18,5 C 18,6 C 77 % 1009,5 hPa 0,0 l/m 0,0 km/h (0 Bft) N 0 0 min 0,000 mm 0 W/m 14,4 C 18,5 C 0,0 km/h (0 Bft) 100 %
27.06.2017 02:50 18,5 C 18,5 C 18,5 C 77 % 1009,5 hPa 0,0 l/m 0,0 km/h (0 Bft) N 0 0 min 0,000 mm 0 W/m 14,4 C 18,5 C 0,0 km/h (0 Bft) 100 %
27.06.2017 03:00 18,6 C 18,5 C 18,6 C 77 % 1009,5 hPa 0,0 l/m 0,0 km/h (0 Bft) N 0 0 min 0,025 mm 0 W/m 14,5 C 18,6 C 0,0 km/h (0 Bft) 100 %
27.06.2017 03:10 18,4 C 18,4 C 18,6 C 81 % 1009,5 hPa 0,0 l/m 0,0 km/h (0 Bft) S 180 0 min 0,000 mm 0 W/m 15,1 C 18,4 C 1,6 km/h (1 Bft) 99 %
27.06.2017 03:20 18,1 C 18,1 C 18,4 C 84 % 1009,5 hPa 0,4 l/m 0,0 km/h (0 Bft) N 0 0 min 0,000 mm 0 W/m 15,4 C 18,1 C 0,0 km/h (0 Bft) 100 %
27.06.2017 03:30 17,7 C 17,7 C 18,1 C 87 % 1009,5 hPa 0,2 l/m 1,6 km/h (1 Bft) SO 135 0 min 0,000 mm 0 W/m 15,5 C 17,7 C 6,4 km/h (2 Bft) 100 %
27.06.2017 03:40 17,5 C 17,5 C 17,7 C 88 % 1009,4 hPa 0,2 l/m 0,0 km/h (0 Bft) N 0 0 min 0,000 mm 0 W/m 15,5 C 17,5 C 0,0 km/h (0 Bft) 100 %
27.06.2017 03:50 17,5 C 17,4 C 17,5 C 89 % 1009,4 hPa 0,2 l/m 0,0 km/h (0 Bft) N 0 0 min 0,000 mm 0 W/m 15,7 C 17,5 C 0,0 km/h (0 Bft) 100 %
27.06.2017 04:00 17,5 C 17,5 C 17,6 C 89 % 1009,1 hPa 0,0 l/m 0,0 km/h (0 Bft) N 0 0 min 0,025 mm 0 W/m 15,7 C 17,5 C 0,0 km/h (0 Bft) 100 %
27.06.2017 04:10 17,4 C 17,4 C 17,5 C 89 % 1008,9 hPa 0,0 l/m 0,0 km/h (0 Bft) N 0 0 min 0,000 mm 0 W/m 15,6 C 17,4 C 0,0 km/h (0 Bft) 100 %
27.06.2017 04:20 17,2 C 17,2 C 17,4 C 89 % 1008,9 hPa 0,0 l/m 0,0 km/h (0 Bft) N 0 0 min 0,000 mm 0 W/m 15,4 C 17,2 C 0,0 km/h (0 Bft) 100 %
27.06.2017 04:30 17,2 C 17,2 C 17,2 C 90 % 1008,9 hPa 0,0 l/m 0,0 km/h (0 Bft) N 0 0 min 0,000 mm 0 W/m 15,5 C 17,2 C 0,0 km/h (0 Bft) 100 %
27.06.2017 04:40 17,0 C 17,0 C 17,2 C 90 % 1008,8 hPa 0,2 l/m 0,0 km/h (0 Bft) N 0 0 min 0,000 mm 0 W/m 15,3 C 17,0 C 0,0 km/h (0 Bft) 100 %
27.06.2017 04:50 16,9 C 16,9 C 17,0 C 90 % 1008,8 hPa 0,0 l/m 0,0 km/h (0 Bft) N 0 0 min 0,000 mm 0 W/m 15,2 C 16,9 C 0,0 km/h (0 Bft) 100 %
27.06.2017 05:00 16,8 C 16,8 C 16,9 C 90 % 1008,7 hPa 0,0 l/m 0,0 km/h (0 Bft) N 0 0 min 0,000 mm 0 W/m 15,1 C 16,8 C 0,0 km/h (0 Bft) 100 %
27.06.2017 05:10 16,8 C 16,8 C 16,8 C 90 % 1008,6 hPa 0,0 l/m 0,0 km/h (0 Bft) N 0 0 min 0,000 mm 0 W/m 15,1 C 16,8 C 0,0 km/h (0 Bft) 100 %
27.06.2017 05:20 16,8 C 16,8 C 16,8 C 90 % 1008,6 hPa 0,2 l/m 0,0 km/h (0 Bft) N 0 0 min 0,000 mm 0 W/m 15,1 C 16,8 C 0,0 km/h (0 Bft) 100 %
27.06.2017 05:30 16,9 C 16,8 C 16,9 C 90 % 1008,6 hPa 0,2 l/m 0,0 km/h (0 Bft) N 0 0 min 0,000 mm 0 W/m 15,2 C 16,9 C 0,0 km/h (0 Bft) 100 %
27.06.2017 05:40 16,9 C 16,9 C 16,9 C 90 % 1008,6 hPa 0,4 l/m 1,6 km/h (1 Bft) O-SO 112 0 min 0,000 mm 0 W/m 15,2 C 16,9 C 8,0 km/h (2 Bft) 100 %
27.06.2017 05:50 16,9 C 16,9 C 17,0 C 90 % 1008,6 hPa 0,2 l/m 0,0 km/h (0 Bft) O-SO 112 0 min 0,000 mm 0 W/m 15,2 C 16,9 C 3,2 km/h (1 Bft) 100 %
27.06.2017 06:00 16,9 C 16,9 C 17,0 C 90 % 1008,6 hPa 0,2 l/m 0,0 km/h (0 Bft) SO 135 0 min 0,000 mm 7 W/m 15,2 C 16,9 C 6,4 km/h (2 Bft) 100 %
27.06.2017 06:10 17,0 C 16,9 C 17,0 C 90 % 1008,6 hPa 0,0 l/m 0,0 km/h (0 Bft) SO 135 0 min 0,000 mm 12 W/m 15,3 C 17,0 C 4,8 km/h (1 Bft) 100 %
27.06.2017 06:20 17,1 C 17,0 C 17,1 C 90 % 1008,6 hPa 0,0 l/m 0,0 km/h (0 Bft) N 0 0 min 0,000 mm 19 W/m 15,4 C 17,1 C 0,0 km/h (0 Bft) 100 %
27.06.2017 06:30 17,1 C 17,1 C 17,1 C 90 % 1008,6 hPa 0,2 l/m 0,0 km/h (0 Bft) O-SO 112 0 min 0,000 mm 21 W/m 15,4 C 17,1 C 1,6 km/h (1 Bft) 100 %
27.06.2017 06:40 17,1 C 17,1 C 17,1 C 90 % 1008,6 hPa 0,0 l/m 0,0 km/h (0 Bft) N 0 0 min 0,000 mm 26 W/m 15,4 C 17,1 C 0,0 km/h (0 Bft) 100 %
27.06.2017 06:50 17,2 C 17,1 C 17,2 C 90 % 1008,6 hPa 0,0 l/m 0,0 km/h (0 Bft) O-SO 112 0 min 0,000 mm 26 W/m 15,5 C 17,2 C 4,8 km/h (1 Bft) 100 %
27.06.2017 07:00 17,2 C 17,2 C 17,2 C 90 % 1008,6 hPa 0,0 l/m 0,0 km/h (0 Bft) O-SO 112 0 min 0,025 mm 25 W/m 15,5 C 17,2 C 3,2 km/h (1 Bft) 99 %
27.06.2017 07:10 17,3 C 17,2 C 17,3 C 91 % 1008,4 hPa 0,0 l/m 1,6 km/h (1 Bft) O-NO 67 0 min 0,000 mm 28 W/m 15,8 C 17,3 C 4,8 km/h (1 Bft) 100 %
27.06.2017 07:20 17,2 C 17,2 C 17,3 C 90 % 1008,3 hPa 0,0 l/m 0,0 km/h (0 Bft) N-NW 337 0 min 0,000 mm 40 W/m 15,5 C 17,2 C 6,4 km/h (2 Bft) 100 %
27.06.2017 07:30 17,3 C 17,3 C 17,3 C 91 % 1008,3 hPa 0,0 l/m 0,0 km/h (0 Bft) N-NW 337 0 min 0,000 mm 65 W/m 15,8 C 17,3 C 6,4 km/h (2 Bft) 100 %
27.06.2017 07:40 17,3 C 17,3 C 17,3 C 91 % 1008,2 hPa 0,0 l/m 0,0 km/h (0 Bft) N 0 0 min 0,000 mm 88 W/m 15,8 C 17,3 C 0,0 km/h (0 Bft) 100 %
27.06.2017 07:50 17,4 C 17,3 C 17,4 C 91 % 1008,2 hPa 0,0 l/m 0,0 km/h (0 Bft) N-NW 337 0 min 0,000 mm 100 W/m 15,9 C 17,4 C 1,6 km/h (1 Bft) 100 %
27.06.2017 08:00 17,5 C 17,4 C 17,5 C 91 % 1008,1 hPa 0,0 l/m 0,0 km/h (0 Bft) N 0 0 min 0,025 mm 116 W/m 16,0 C 17,5 C 0,0 km/h (0 Bft) 99 %
27.06.2017 08:10 17,6 C 17,5 C 17,6 C 91 % 1008,1 hPa 0,0 l/m 0,0 km/h (0 Bft) N 0 0 min 0,000 mm 114 W/m 16,1 C 17,6 C 0,0 km/h (0 Bft) 100 %
27.06.2017 08:20 17,6 C 17,6 C 17,6 C 91 % 1008,2 hPa 0,0 l/m 0,0 km/h (0 Bft) N 0 0 min 0,000 mm 116 W/m 16,1 C 17,6 C 0,0 km/h (0 Bft) 100 %
27.06.2017 08:30 17,7 C 17,6 C 17,7 C 91 % 1008,2 hPa 0,0 l/m 0,0 km/h (0 Bft) N 0 0 min 0,000 mm 127 W/m 16,2 C 17,7 C 0,0 km/h (0 Bft) 100 %
27.06.2017 08:40 17,7 C 17,7 C 17,7 C 91 % 1008,2 hPa 0,0 l/m 0,0 km/h (0 Bft) N-NW 337 0 min 0,000 mm 121 W/m 16,2 C 17,7 C 1,6 km/h (1 Bft) 100 %
27.06.2017 08:50 17,9 C 17,7 C 17,9 C 91 % 1008,1 hPa 0,0 l/m 0,0 km/h (0 Bft) N 0 0 min 0,000 mm 135 W/m 16,4 C 17,9 C 0,0 km/h (0 Bft) 100 %
27.06.2017 09:00 18,0 C 17,9 C 18,0 C 91 % 1008,1 hPa 0,0 l/m 0,0 km/h (0 Bft) N 0 10 min 0,076 mm 165 W/m 16,5 C 18,0 C 0,0 km/h (0 Bft) 100 %
27.06.2017 09:10 18,2 C 18,0 C 18,2 C 91 % 1008,0 hPa 0,0 l/m 0,0 km/h (0 Bft) N 0 10 min 0,000 mm 200 W/m 16,7 C 18,2 C 0,0 km/h (0 Bft) 100 %
27.06.2017 09:20 18,4 C 18,2 C 18,4 C 91 % 1008,0 hPa 0,0 l/m 0,0 km/h (0 Bft) N-NW 337 10 min 0,000 mm 200 W/m 16,9 C 18,4 C 4,8 km/h (1 Bft) 100 %
27.06.2017 09:30 18,4 C 18,4 C 18,5 C 91 % 1008,1 hPa 0,0 l/m 0,0 km/h (0 Bft) N 0 10 min 0,000 mm 193 W/m 16,9 C 18,4 C 0,0 km/h (0 Bft) 100 %
27.06.2017 09:40 18,6 C 18,4 C 18,6 C 91 % 1008,1 hPa 0,0 l/m 0,0 km/h (0 Bft) N-NW 337 10 min 0,000 mm 223 W/m 17,1 C 18,6 C 4,8 km/h (1 Bft) 100 %
27.06.2017 09:50 18,8 C 18,6 C 18,8 C 91 % 1008,0 hPa 0,0 l/m 0,0 km/h (0 Bft) N 0 10 min 0,000 mm 239 W/m 17,3 C 18,8 C 0,0 km/h (0 Bft) 100 %
27.06.2017 10:00 19,0 C 18,8 C 19,0 C 91 % 1008,0 hPa 0,0 l/m 0,0 km/h (0 Bft) N 0 10 min 0,102 mm 200 W/m 17,5 C 19,0 C 0,0 km/h (0 Bft) 100 %
27.06.2017 10:10 19,0 C 19,0 C 19,0 C 91 % 1008,1 hPa 0,0 l/m 0,0 km/h (0 Bft) N 0 10 min 0,000 mm 171 W/m 17,5 C 19,0 C 0,0 km/h (0 Bft) 100 %
27.06.2017 10:20 19,2 C 19,0 C 19,2 C 91 % 1008,1 hPa 0,0 l/m 0,0 km/h (0 Bft) N-NW 337 10 min 0,000 mm 183 W/m 17,7 C 19,2 C 1,6 km/h (1 Bft) 100 %
27.06.2017 10:30 19,2 C 19,2 C 19,2 C 90 % 1007,9 hPa 0,0 l/m 0,0 km/h (0 Bft) N 0 10 min 0,000 mm 206 W/m 17,5 C 19,2 C 0,0 km/h (0 Bft) 100 %
27.06.2017 10:40 19,3 C 19,2 C 19,3 C 90 % 1008,0 hPa 0,0 l/m 0,0 km/h (0 Bft) N 0 10 min 0,000 mm 193 W/m 17,6 C 19,3 C 0,0 km/h (0 Bft) 100 %
27.06.2017 10:50 19,4 C 19,3 C 19,4 C 90 % 1008,1 hPa 0,0 l/m 0,0 km/h (0 Bft) N 360 10 min 0,000 mm 206 W/m 17,7 C 19,4 C 1,6 km/h (1 Bft) 100 %
27.06.2017 11:00 19,7 C 19,4 C 19,7 C 90 % 1007,9 hPa 0,0 l/m 0,0 km/h (0 Bft) N 360 10 min 0,102 mm 290 W/m 18,0 C 19,7 C 1,6 km/h (1 Bft) 100 %
27.06.2017 11:10 20,1 C 19,7 C 20,1 C 90 % 1007,8 hPa 0,0 l/m 0,0 km/h (0 Bft) N 360 10 min 0,000 mm 489 W/m 18,4 C 20,1 C 1,6 km/h (1 Bft) 100 %
27.06.2017 11:20 20,3 C 20,1 C 20,3 C 90 % 1007,9 hPa 0,0 l/m 0,0 km/h (0 Bft) NO 45 10 min 0,000 mm 522 W/m 18,6 C 20,3 C 1,6 km/h (1 Bft) 100 %
27.06.2017 11:30 20,4 C 20,3 C 20,4 C 89 % 1007,9 hPa 0,0 l/m 0,0 km/h (0 Bft) NO 45 10 min 0,000 mm 387 W/m 18,5 C 20,4 C 1,6 km/h (1 Bft) 100 %
27.06.2017 11:40 20,6 C 20,4 C 20,6 C 88 % 1007,8 hPa 0,0 l/m 0,0 km/h (0 Bft) O-NO 67 10 min 0,000 mm 454 W/m 18,5 C 20,6 C 1,6 km/h (1 Bft) 100 %
27.06.2017 11:50 20,9 C 20,6 C 20,9 C 88 % 1007,6 hPa 0,0 l/m 0,0 km/h (0 Bft) O-NO 67 10 min 0,000 mm 401 W/m 18,8 C 20,9 C 1,6 km/h (1 Bft) 100 %
27.06.2017 12:00 21,1 C 20,9 C 21,1 C 88 % 1007,5 hPa 0,0 l/m 0,0 km/h (0 Bft) O-NO 67 10 min 0,203 mm 288 W/m 19,0 C 21,1 C 1,6 km/h (1 Bft) 100 %
27.06.2017 12:10 21,1 C 21,1 C 21,2 C 87 % 1007,5 hPa 0,0 l/m 0,0 km/h (0 Bft) NO 45 10 min 0,000 mm 283 W/m 18,8 C 21,1 C 6,4 km/h (2 Bft) 100 %
27.06.2017 12:20 21,2 C 21,1 C 21,2 C 87 % 1007,5 hPa 0,0 l/m 0,0 km/h (0 Bft) NO 45 10 min 0,000 mm 445 W/m 18,9 C 21,2 C 1,6 km/h (1 Bft) 100 %
27.06.2017 12:30 21,6 C 21,2 C 21,6 C 86 % 1007,4 hPa 0,0 l/m 0,0 km/h (0 Bft) NO 45 10 min 0,000 mm 628 W/m 19,2 C 21,6 C 6,4 km/h (2 Bft) 100 %
27.06.2017 12:40 22,1 C 21,6 C 22,1 C 85 % 1007,2 hPa 0,0 l/m 0,0 km/h (0 Bft) N-NO 22 10 min 0,000 mm 1271 W/m 19,5 C 22,1 C 4,8 km/h (1 Bft) 100 %
27.06.2017 12:50 23,1 C 22,1 C 23,1 C 83 % 1007,0 hPa 0,0 l/m 0,0 km/h (0 Bft) N-NO 22 10 min 0,000 mm 1143 W/m 20,0 C 23,1 C 1,6 km/h (1 Bft) 100 %
27.06.2017 13:00 23,8 C 23,1 C 23,8 C 80 % 1006,9 hPa 0,0 l/m 0,0 km/h (0 Bft) NW 315 10 min 0,381 mm 1248 W/m 20,1 C 23,8 C 8,0 km/h (2 Bft) 100 %
27.06.2017 13:10 24,1 C 23,8 C 24,1 C 78 % 1006,8 hPa 0,0 l/m 0,0 km/h (0 Bft) NW 315 10 min 0,000 mm 517 W/m 20,0 C 24,1 C 4,8 km/h (1 Bft) 100 %
27.06.2017 13:20 23,8 C 23,8 C 24,1 C 75 % 1006,8 hPa 0,0 l/m 0,0 km/h (0 Bft) O-SO 112 10 min 0,000 mm 436 W/m 19,1 C 23,8 C 9,7 km/h (2 Bft) 100 %
27.06.2017 13:30 23,8 C 23,8 C 23,8 C 78 % 1006,4 hPa 0,0 l/m 0,0 km/h (0 Bft) O-SO 112 10 min 0,000 mm 424 W/m 19,7 C 23,8 C 1,6 km/h (1 Bft) 100 %
27.06.2017 13:40 23,9 C 23,8 C 23,9 C 79 % 1006,3 hPa 0,0 l/m 0,0 km/h (0 Bft) O-SO 112 10 min 0,000 mm 494 W/m 20,0 C 23,9 C 1,6 km/h (1 Bft) 100 %
27.06.2017 13:50 24,2 C 23,9 C 24,2 C 77 % 1006,3 hPa 0,0 l/m 0,0 km/h (0 Bft) N 0 10 min 0,000 mm 664 W/m 19,9 C 24,2 C 0,0 km/h (0 Bft) 100 %
27.06.2017 14:00 24,6 C 24,2 C 24,6 C 77 % 1006,1 hPa 0,0 l/m 3,2 km/h (1 Bft) NW 315 10 min 0,305 mm 661 W/m 20,3 C 24,6 C 11,3 km/h (2 Bft) 100 %
27.06.2017 14:10 24,6 C 24,5 C 24,6 C 75 % 1006,1 hPa 0,0 l/m 0,0 km/h (0 Bft) O-NO 67 10 min 0,000 mm 531 W/m 19,9 C 24,6 C 3,2 km/h (1 Bft) 100 %
27.06.2017 14:20 25,2 C 24,6 C 25,2 C 73 % 1005,9 hPa 0,0 l/m 1,6 km/h (1 Bft) NW 315 10 min 0,000 mm 1209 W/m 20,0 C 25,2 C 9,7 km/h (2 Bft) 100 %
27.06.2017 14:30 25,5 C 25,2 C 25,5 C 71 % 1005,7 hPa 0,0 l/m 1,6 km/h (1 Bft) NW 315 10 min 0,000 mm 504 W/m 19,8 C 25,5 C 8,0 km/h (2 Bft) 100 %
27.06.2017 14:40 25,7 C 25,5 C 25,8 C 70 % 1005,5 hPa 0,0 l/m 1,6 km/h (1 Bft) N-NW 337 10 min 0,000 mm 459 W/m 19,8 C 25,7 C 9,7 km/h (2 Bft) 100 %
27.06.2017 14:50 25,8 C 25,7 C 25,8 C 69 % 1005,4 hPa 0,0 l/m 1,6 km/h (1 Bft) N-NW 337 10 min 0,000 mm 947 W/m 19,7 C 25,8 C 8,0 km/h (2 Bft) 100 %
27.06.2017 15:00 25,9 C 25,8 C 26,0 C 69 % 1005,3 hPa 0,0 l/m 1,6 km/h (1 Bft) N-NW 337 10 min 0,381 mm 541 W/m 19,8 C 25,9 C 6,4 km/h (2 Bft) 100 %
27.06.2017 15:10 25,9 C 25,9 C 26,0 C 72 % 1005,1 hPa 0,0 l/m 1,6 km/h (1 Bft) N-NW 337 10 min 0,000 mm 473 W/m 20,5 C 25,9 C 8,0 km/h (2 Bft) 99 %
27.06.2017 15:20 25,8 C 25,8 C 25,9 C 69 % 1005,1 hPa 0,0 l/m 0,0 km/h (0 Bft) N-NW 337 10 min 0,000 mm 374 W/m 19,7 C 25,8 C 1,6 km/h (1 Bft) 100 %
27.06.2017 15:30 25,8 C 25,7 C 25,8 C 71 % 1005,1 hPa 0,0 l/m 0,0 km/h (0 Bft) NO 45 10 min 0,000 mm 367 W/m 20,1 C 25,8 C 4,8 km/h (1 Bft) 100 %
27.06.2017 15:40 26,0 C 25,7 C 26,0 C 69 % 1005,0 hPa 0,0 l/m 0,0 km/h (0 Bft) O-SO 112 10 min 0,000 mm 471 W/m 19,9 C 26,0 C 9,7 km/h (2 Bft) 100 %
27.06.2017 16:00 26,6 C 25,7 C 26,6 C 66 % 1004,6 hPa 0,0 l/m 0,0 km/h (0 Bft) NO 37 20 min 0,256 mm 798 W/m 19,7 C 26,6 C 1,6 km/h (1 Bft) 100 %
27.06.2017 16:10 26,7 C 26,6 C 26,8 C 64 % 1004,7 hPa 0,0 l/m 0,4 km/h (0 Bft) SO 126 10 min 0,000 mm 181 W/m 19,3 C 26,7 C 8,0 km/h (2 Bft) 100 %
27.06.2017 16:20 26,2 C 26,2 C 26,7 C 66 % 1004,6 hPa 0,0 l/m 0,2 km/h (0 Bft) N-NO 21 10 min 0,000 mm 183 W/m 19,3 C 26,2 C 6,4 km/h (2 Bft) 100 %
27.06.2017 16:30 25,9 C 25,9 C 26,2 C 64 % 1004,5 hPa 0,0 l/m 0,4 km/h (0 Bft) O 86 10 min 0,000 mm 186 W/m 18,6 C 25,9 C 6,4 km/h (2 Bft) 100 %
27.06.2017 16:40 25,6 C 25,6 C 25,9 C 69 % 1004,4 hPa 0,0 l/m 0,0 km/h (0 Bft) O-SO 104 10 min 0,000 mm 171 W/m 19,5 C 25,6 C 1,6 km/h (1 Bft) 100 %
27.06.2017 16:50 25,4 C 25,3 C 25,6 C 70 % 1004,3 hPa 0,0 l/m 0,0 km/h (0 Bft) O-SO 104 0 min 0,000 mm 123 W/m 19,5 C 25,4 C 0,0 km/h (0 Bft) 100 %
27.06.2017 17:00 25,0 C 25,0 C 25,4 C 69 % 1004,3 hPa 0,0 l/m 0,0 km/h (0 Bft) O-SO 104 0 min 0,000 mm 70 W/m 18,9 C 25,0 C 0,0 km/h (0 Bft) 100 %
27.06.2017 17:10 24,7 C 24,7 C 25,0 C 72 % 1004,3 hPa 0,0 l/m 0,0 km/h (0 Bft) O-SO 104 0 min 0,127 mm 65 W/m 19,3 C 24,7 C 0,0 km/h (0 Bft) 100 %
27.06.2017 17:20 24,2 C 24,2 C 24,7 C 75 % 1004,3 hPa 0,0 l/m 0,0 km/h (0 Bft) O-SO 113 0 min 0,000 mm 60 W/m 19,5 C 24,2 C 1,6 km/h (1 Bft) 100 %
27.06.2017 17:30 23,9 C 23,9 C 24,2 C 75 % 1004,1 hPa 0,0 l/m 0,0 km/h (0 Bft) SO 130 0 min 0,000 mm 113 W/m 19,2 C 23,9 C 0,0 km/h (0 Bft) 100 %
27.06.2017 17:40 23,6 C 23,6 C 23,9 C 77 % 1004,0 hPa 0,0 l/m 0,0 km/h (0 Bft) SO 128 0 min 0,000 mm 144 W/m 19,3 C 23,6 C 1,6 km/h (1 Bft) 100 %
27.06.2017 17:50 23,4 C 23,4 C 23,6 C 77 % 1003,8 hPa 0,0 l/m 0,0 km/h (0 Bft) SO 128 10 min 0,000 mm 158 W/m 19,1 C 23,4 C 0,0 km/h (0 Bft) 100 %
27.06.2017 18:00 23,4 C 23,3 C 23,4 C 78 % 1003,8 hPa 0,0 l/m 0,0 km/h (0 Bft) SO 128 0 min 0,076 mm 114 W/m 19,3 C 23,4 C 1,6 km/h (1 Bft) 100 %
27.06.2017 18:10 23,1 C 23,1 C 23,4 C 79 % 1003,8 hPa 0,0 l/m 0,0 km/h (0 Bft) S-SO 147 0 min 0,000 mm 83 W/m 19,3 C 23,1 C 1,6 km/h (1 Bft) 100 %
27.06.2017 18:20 22,8 C 22,8 C 23,1 C 79 % 1003,8 hPa 0,0 l/m 0,0 km/h (0 Bft) S-SO 163 0 min 0,000 mm 81 W/m 19,0 C 22,8 C 1,6 km/h (1 Bft) 99 %
27.06.2017 18:30 22,7 C 22,7 C 22,8 C 80 % 1003,7 hPa 0,0 l/m 0,0 km/h (0 Bft) S-SO 163 0 min 0,000 mm 128 W/m 19,1 C 22,7 C 0,0 km/h (0 Bft) 100 %
27.06.2017 18:40 22,7 C 22,7 C 22,7 C 82 % 1003,5 hPa 0,2 l/m 0,0 km/h (0 Bft) S-SO 163 10 min 0,000 mm 178 W/m 19,5 C 22,7 C 0,0 km/h (0 Bft) 100 %
27.06.2017 18:50 22,8 C 22,7 C 22,8 C 84 % 1003,5 hPa 0,0 l/m 0,0 km/h (0 Bft) S-SO 163 10 min 0,000 mm 225 W/m 19,9 C 22,8 C 1,6 km/h (1 Bft) 100 %
27.06.2017 19:00 23,1 C 22,8 C 23,1 C 82 % 1003,4 hPa 0,0 l/m 0,1 km/h (0 Bft) S 183 10 min 0,102 mm 206 W/m 19,9 C 23,1 C 4,8 km/h (1 Bft) 100 %
27.06.2017 19:10 23,2 C 23,1 C 23,2 C 81 % 1003,3 hPa 0,0 l/m 0,5 km/h (0 Bft) O 98 0 min 0,000 mm 139 W/m 19,8 C 23,2 C 6,4 km/h (2 Bft) 100 %
27.06.2017 19:20 23,1 C 23,1 C 23,2 C 80 % 1003,3 hPa 0,0 l/m 0,4 km/h (0 Bft) O-NO 76 0 min 0,000 mm 86 W/m 19,5 C 23,1 C 6,4 km/h (2 Bft) 100 %
27.06.2017 19:30 23,0 C 23,0 C 23,1 C 79 % 1003,1 hPa 0,0 l/m 0,6 km/h (0 Bft) O 83 0 min 0,000 mm 84 W/m 19,2 C 23,0 C 8,0 km/h (2 Bft) 100 %
27.06.2017 19:40 22,8 C 22,8 C 23,0 C 79 % 1003,1 hPa 0,0 l/m 0,0 km/h (0 Bft) SO 130 10 min 0,000 mm 255 W/m 19,0 C 22,8 C 1,6 km/h (1 Bft) 100 %
27.06.2017 19:50 22,8 C 22,8 C 22,8 C 79 % 1002,9 hPa 0,0 l/m 1,5 km/h (1 Bft) N-NO 15 0 min 0,000 mm 95 W/m 19,0 C 22,8 C 8,0 km/h (2 Bft) 100 %
27.06.2017 20:00 22,7 C 22,7 C 22,8 C 77 % 1002,8 hPa 0,0 l/m 1,8 km/h (1 Bft) N-NO 15 0 min 0,076 mm 53 W/m 18,5 C 22,7 C 11,3 km/h (2 Bft) 100 %
27.06.2017 20:10 22,5 C 22,5 C 22,7 C 78 % 1002,7 hPa 0,0 l/m 2,5 km/h (1 Bft) S-SO 148 0 min 0,000 mm 40 W/m 18,5 C 22,5 C 16,1 km/h (3 Bft) 100 %
27.06.2017 20:20 22,2 C 22,2 C 22,5 C 79 % 1002,7 hPa 0,0 l/m 1,3 km/h (1 Bft) O-SO 115 0 min 0,000 mm 54 W/m 18,4 C 22,2 C 17,7 km/h (3 Bft) 100 %
27.06.2017 20:30 22,0 C 22,0 C 22,2 C 80 % 1002,6 hPa 0,0 l/m 1,1 km/h (1 Bft) O-SO 107 0 min 0,000 mm 47 W/m 18,4 C 22,0 C 14,5 km/h (3 Bft) 100 %
27.06.2017 20:40 21,9 C 21,9 C 22,0 C 81 % 1002,4 hPa 0,0 l/m 0,8 km/h (0 Bft) O 94 0 min 0,000 mm 42 W/m 18,5 C 21,9 C 11,3 km/h (2 Bft) 100 %
27.06.2017 20:50 21,7 C 21,7 C 21,9 C 81 % 1002,3 hPa 0,0 l/m 1,0 km/h (0 Bft) O-SO 111 0 min 0,000 mm 25 W/m 18,3 C 21,7 C 11,3 km/h (2 Bft) 100 %
27.06.2017 21:00 21,5 C 21,5 C 21,7 C 81 % 1002,3 hPa 0,0 l/m 0,2 km/h (0 Bft) O 96 0 min 0,026 mm 21 W/m 18,1 C 21,5 C 8,0 km/h (2 Bft) 100 %
27.06.2017 21:10 21,3 C 21,3 C 21,5 C 83 % 1002,2 hPa 0,0 l/m 0,0 km/h (0 Bft) O 90 0 min 0,000 mm 19 W/m 18,3 C 21,3 C 6,4 km/h (2 Bft) 100 %
27.06.2017 21:20 21,1 C 21,1 C 21,3 C 83 % 1002,2 hPa 0,0 l/m 0,0 km/h (0 Bft) O 90 0 min 0,000 mm 9 W/m 18,1 C 21,1 C 8,0 km/h (2 Bft) 100 %
27.06.2017 21:30 20,9 C 20,9 C 21,1 C 83 % 1002,1 hPa 0,0 l/m 0,0 km/h (0 Bft) SO 135 0 min 0,000 mm 0 W/m 17,9 C 20,9 C 1,6 km/h (1 Bft) 100 %
27.06.2017 21:40 20,6 C 20,6 C 20,9 C 85 % 1002,0 hPa 0,0 l/m 0,0 km/h (0 Bft) N 360 0 min 0,000 mm 0 W/m 18,0 C 20,6 C 6,4 km/h (2 Bft) 100 %
27.06.2017 21:50 20,4 C 20,4 C 20,6 C 85 % 1002,2 hPa 0,0 l/m 0,0 km/h (0 Bft) N 360 0 min 0,000 mm 0 W/m 17,8 C 20,4 C 3,2 km/h (1 Bft) 100 %
27.06.2017 22:00 20,2 C 20,2 C 20,4 C 86 % 1002,2 hPa 0,0 l/m 0,0 km/h (0 Bft) NO 45 0 min 0,000 mm 0 W/m 17,8 C 20,2 C 8,0 km/h (2 Bft) 99 %
27.06.2017 22:10 20,1 C 20,1 C 20,2 C 86 % 1002,1 hPa 0,0 l/m 0,0 km/h (0 Bft) NO 45 0 min 0,000 mm 0 W/m 17,7 C 20,1 C 1,6 km/h (1 Bft) 100 %
27.06.2017 22:20 19,9 C 19,9 C 20,1 C 86 % 1002,1 hPa 0,0 l/m 0,0 km/h (0 Bft) N-NO 22 0 min 0,000 mm 0 W/m 17,5 C 19,9 C 8,0 km/h (2 Bft) 100 %
27.06.2017 22:30 19,8 C 19,8 C 19,9 C 86 % 1001,9 hPa 0,0 l/m 0,0 km/h (0 Bft) N-NW 337 0 min 0,000 mm 0 W/m 17,4 C 19,8 C 6,4 km/h (2 Bft) 100 %
27.06.2017 22:40 19,8 C 19,8 C 19,8 C 86 % 1002,0 hPa 0,0 l/m 0,0 km/h (0 Bft) O 90 0 min 0,000 mm 0 W/m 17,4 C 19,8 C 1,6 km/h (1 Bft) 100 %
27.06.2017 22:50 19,7 C 19,7 C 19,8 C 86 % 1002,2 hPa 0,0 l/m 0,0 km/h (0 Bft) N 0 0 min 0,000 mm 0 W/m 17,3 C 19,7 C 0,0 km/h (0 Bft) 100 %
27.06.2017 23:00 19,7 C 19,7 C 19,7 C 86 % 1002,2 hPa 0,0 l/m 0,0 km/h (0 Bft) N 0 0 min 0,025 mm 0 W/m 17,3 C 19,7 C 0,0 km/h (0 Bft) 100 %
27.06.2017 23:10 19,7 C 19,7 C 19,7 C 86 % 1002,2 hPa 0,0 l/m 0,0 km/h (0 Bft) N 0 0 min 0,000 mm 0 W/m 17,3 C 19,7 C 0,0 km/h (0 Bft) 100 %
27.06.2017 23:20 19,6 C 19,6 C 19,7 C 86 % 1002,0 hPa 0,0 l/m 0,0 km/h (0 Bft) N 0 0 min 0,000 mm 0 W/m 17,2 C 19,6 C 0,0 km/h (0 Bft) 100 %
27.06.2017 23:30 19,6 C 19,6 C 19,6 C 87 % 1001,9 hPa 0,0 l/m 0,0 km/h (0 Bft) N 0 0 min 0,000 mm 0 W/m 17,4 C 19,6 C 0,0 km/h (0 Bft) 100 %
27.06.2017 23:40 19,5 C 19,5 C 19,6 C 87 % 1001,8 hPa 0,0 l/m 0,0 km/h (0 Bft) N 0 0 min 0,000 mm 0 W/m 17,3 C 19,5 C 0,0 km/h (0 Bft) 100 %
27.06.2017 23:50 19,4 C 19,4 C 19,5 C 87 % 1001,4 hPa 0,0 l/m 0,0 km/h (0 Bft) N-NO 22 0 min 0,000 mm 0 W/m 17,2 C 19,4 C 1,6 km/h (1 Bft) 100 %
_ Min-Zeit 05:00 05:00 05:10 16:10 23:50 - 00:00 - - - - - 01:10 05:00 00:00 07:00
Minimum _ 16,8 C 16,8 C 16,8 C 64 % 1001,4 hPa - 0,0 km/h (0 Bft) - - - - - 14,2 C 16,8 C 0,0 km/h (0 Bft) 99 %
_ Max-Zeit 16:10 16:10 16:10 07:10 02:00 03:20 02:00 - - 16:00 13:00 12:40 15:10 16:10 02:00 00:00
Maximum _ 26,8 C 26,6 C 26,8 C 91 % 1010,1 hPa 0,4 l/m 6,4 km/h
S-SO (2 Bft)
- - 20 min 0,381 mm 1271 W/m 20,5 C 26,7 C 29,0 km/h
S-SO (5 Bft)
100 %
Durchschnitt _ 20,5 C 20,4 C 20,6 C 83 % 1006,4 hPa #2,8 l/m 0,3 km/h (0 Bft) S-SO - #8:40 h #2,413 mm 269 W/m 17,4 C 20,5 C 3,4 km/h (1 Bft) 100 %
PRIVATE WETTERSTATION BILLIGHEIM-ALLFELD - www.neckar-odenwald-wetter.de - Holger Sonntag